メインページ
METAR-TAF:

METAR-TAF

空港 :

カイロ国際空港

カイロ, エジプト

緯度: 30-08N, 経度: 031-24E, 海抜: 64m

現時点の気象観測

当レポートは29分前の03:30(UTC)に作成
の風 16kt
気温 13°C
湿度 62%
気圧 1014 hPa
視程: 6000m
高度2500ftの雲はほとんどない
高度7000ftの千切れ雲あり

METAR: HECA 130330Z 19016KT 6000 FEW025 BKN070 13/06 Q1014 NOSIG

時間: 05:59 (03:59 UTC)

予報

当レポートは4時間59分前の23:00(UTC)に作成
予報は13日の 00時(UTC)から 14日の 06時(UTC)まで有効
南西の風 15kt、最大25ktの突風を伴う
視程: 6000m
高度2500ftの雲は散在している
高度7000ftの千切れ雲あり
13日の 00時(UTC)から 13日の 12時(UTC)まで一時的に
視程: 4000m

TAF: HECA 122300Z 1300/1406 23015G25KT 6000 SCT025 BKN070 TEMPO 1300/1312 4000 SA

4,000以上の空港の気象観測と天気予報(METAR報とTAF報)

利用可能な観測所は地図上に黄色い丸と赤い丸で示す。

丸の上にカーソルを重ねると観測所名を参照できる。

次にクリックすると気象観測と天気予報を参照できる。

マップの切り替え:黒色「×」印の緑ボタンをクリックして拡大、「-」印の緑ボタンをクリックして縮小、緑色の三角印をクリックして隣りの地図に切り替え


METAR-TAF: